RJNW(METAR)
05/21 18:00
METAR RJNW 210900Z 22009KT 9999 FEW030 BKN/// 17/10 Q1005 RMK 1CU030
A2969=
戻る
トップページへ戻る
IMOC Co,.Ltd.